Time;durP1;ratioP1;P1;durP2;ratioP2;P2;SDS_P1;SDS_P2;PMS_P1;PMS_P2;Temp;Humidity;BMP_temperature;BMP_pressure;BME280_temperature;BME280_humidity;BME280_pressure;Samples;Min_cycle;Max_cycle;Signal;HPM_P1;HPM_P2
2022/10/11 00:02:05;;;;;;;1.92;1.17;;;17.20;84.20;;;;;;5026845;28;20116;-78
2022/10/11 00:04:31;;;;;;;2.40;1.10;;;17.20;84.30;;;;;;5026598;28;20060;-78
2022/10/11 00:06:57;;;;;;;1.77;1.02;;;17.20;84.40;;;;;;5025239;28;20541;-78
2022/10/11 00:09:22;;;;;;;2.22;1.02;;;17.10;84.40;;;;;;5026706;28;20040;-77
2022/10/11 00:11:48;;;;;;;2.55;1.05;;;17.10;84.40;;;;;;5026487;28;20026;-77
2022/10/11 00:14:13;;;;;;;2.08;1.10;;;17.10;84.40;;;;;;5008214;28;20042;-77
2022/10/11 00:16:43;;;;;;;2.25;1.02;;;17.10;84.50;;;;;;5026600;28;20034;-77
2022/10/11 00:19:10;;;;;;;2.67;1.23;;;17.20;84.60;;;;;;5026191;28;20495;-77
2022/10/11 00:21:36;;;;;;;2.85;1.20;;;17.10;84.50;;;;;;5025772;28;20029;-77
2022/10/11 00:24:02;;;;;;;2.33;1.10;;;17.10;84.60;;;;;;5025573;28;20068;-77
2022/10/11 00:26:28;;;;;;;1.83;1.00;;;17.10;84.60;;;;;;5008131;28;20037;-77
2022/10/11 00:28:53;;;;;;;2.67;1.10;;;17.10;84.60;;;;;;5025266;28;20076;-77
2022/10/11 00:31:19;;;;;;;2.40;1.10;;;17.10;84.60;;;;;;5025395;28;20033;-77
2022/10/11 00:33:45;;;;;;;2.25;1.10;;;17.10;84.60;;;;;;5008001;28;20026;-77
2022/10/11 00:36:15;;;;;;;2.60;1.00;;;17.10;84.60;;;;;;5008124;28;20504;-77
2022/10/11 00:38:42;;;;;;;1.77;0.90;;;17.10;84.60;;;;;;5024637;28;20037;-79
2022/10/11 00:41:09;;;;;;;2.80;1.15;;;17.10;84.60;;;;;;5010706;28;20086;-77
2022/10/11 00:43:35;;;;;;;1.70;1.08;;;17.10;84.50;;;;;;5029313;28;20061;-77
2022/10/11 00:46:03;;;;;;;3.15;1.20;;;17.10;84.50;;;;;;5011927;28;20782;-79
2022/10/11 00:48:35;;;;;;;2.03;1.05;;;17.10;84.30;;;;;;5010883;28;20792;-77
2022/10/11 00:51:03;;;;;;;2.33;1.23;;;17.20;84.30;;;;;;5029208;28;20112;-77
2022/10/11 00:53:31;;;;;;;2.17;1.00;;;17.20;84.30;;;;;;5011352;28;20025;-77
2022/10/11 00:56:06;;;;;;;2.35;1.05;;;17.20;84.30;;;;;;5011732;28;20622;-78
2022/10/11 00:58:35;;;;;;;2.67;1.20;;;17.20;84.30;;;;;;5010789;28;20086;-77
2022/10/11 01:01:01;;;;;;;2.22;1.00;;;17.10;84.30;;;;;;5011193;28;20053;-78
2022/10/11 01:03:30;;;;;;;2.53;1.13;;;17.10;84.40;;;;;;5011248;28;20037;-76
2022/10/11 01:05:56;;;;;;;2.28;1.20;;;17.10;84.40;;;;;;5010608;28;20116;-77
2022/10/11 01:08:22;;;;;;;2.83;1.20;;;17.10;84.40;;;;;;5028491;28;20108;-77
2022/10/11 01:10:48;;;;;;;2.30;1.10;;;17.10;84.50;;;;;;5011155;28;20017;-78
2022/10/11 01:13:35;;;;;;;2.38;1.20;;;17.10;84.50;;;;;;5028580;28;20041;-78
2022/10/11 01:16:17;;;;;;;2.20;1.10;;;17.10;84.50;;;;;;5010785;28;20083;-77
2022/10/11 01:18:52;;;;;;;2.03;1.00;;;17.00;84.60;;;;;;5028682;28;20030;-77
2022/10/11 01:21:46;;;;;;;1.88;1.00;;;17.10;84.60;;;;;;5010631;28;20021;-77
2022/10/11 01:24:49;;;;;;;1.77;1.05;;;17.00;84.60;;;;;;5028421;28;20096;-77
2022/10/11 01:27:39;;;;;;;2.20;0.98;;;17.10;84.70;;;;;;5027300;28;20025;-77
2022/10/11 01:30:30;;;;;;;1.60;0.97;;;17.00;84.70;;;;;;5009971;28;20909;-77
2022/10/11 01:33:19;;;;;;;2.05;1.02;;;17.00;84.70;;;;;;5018831;28;20038;-77
2022/10/11 01:35:48;;;;;;;2.10;1.00;;;17.00;84.70;;;;;;5028286;28;20036;-77
2022/10/11 01:38:29;;;;;;;2.50;1.13;;;17.00;84.70;;;;;;5009754;28;20044;-76
2022/10/11 01:41:01;;;;;;;2.75;1.05;;;17.00;84.60;;;;;;5027847;28;20044;-78
2022/10/11 01:43:27;;;;;;;2.70;1.17;;;17.10;84.60;;;;;;5027869;28;20036;-76
2022/10/11 01:45:56;;;;;;;1.48;0.80;;;17.10;84.50;;;;;;5010403;28;20037;-77
2022/10/11 01:48:22;;;;;;;2.85;1.10;;;17.10;84.50;;;;;;5009854;28;20132;-77
2022/10/11 01:50:57;;;;;;;1.83;1.08;;;17.00;84.30;;;;;;5027156;28;20543;-77
2022/10/11 01:53:44;;;;;;;1.77;1.00;;;17.10;84.30;;;;;;5010451;28;20037;-76
2022/10/11 01:56:39;;;;;;;1.85;0.95;;;17.10;84.30;;;;;;5027603;28;20034;-77
2022/10/11 01:59:37;;;;;;;1.75;1.00;;;17.10;84.30;;;;;;5027666;28;20068;-78
2022/10/11 02:02:10;;;;;;;2.67;1.05;;;17.10;84.40;;;;;;5001867;28;20044;-77
2022/10/11 02:04:52;;;;;;;2.78;1.23;;;17.10;84.50;;;;;;5009588;28;20030;-78
2022/10/11 02:07:18;;;;;;;2.17;1.10;;;17.00;84.50;;;;;;5028449;28;20032;-77
2022/10/11 02:09:54;;;;;;;2.63;1.13;;;17.10;84.60;;;;;;5029088;28;20104;-78
2022/10/11 02:12:32;;;;;;;1.70;0.93;;;17.00;84.50;;;;;;5023617;28;20120;-77
2022/10/11 02:15:01;;;;;;;1.90;1.00;;;17.00;84.60;;;;;;5023349;28;20022;-78
2022/10/11 02:17:32;;;;;;;1.23;0.90;;;17.00;84.60;;;;;;5027321;28;20506;-77
2022/10/11 02:20:01;;;;;;;1.50;0.85;;;17.00;84.70;;;;;;5010261;28;20549;-79
2022/10/11 02:22:31;;;;;;;1.73;1.00;;;17.00;84.70;;;;;;5010518;28;20052;-80
2022/10/11 02:25:01;;;;;;;2.55;1.10;;;17.00;84.70;;;;;;5010114;28;20025;-78
2022/10/11 02:27:31;;;;;;;2.70;1.20;;;17.00;84.70;;;;;;5009409;28;20026;-77
2022/10/11 02:30:02;;;;;;;1.65;1.02;;;17.00;84.80;;;;;;5028384;28;20033;-78
2022/10/11 02:32:29;;;;;;;2.13;1.00;;;17.00;84.70;;;;;;5027768;28;20117;-77
2022/10/11 02:34:58;;;;;;;1.10;0.80;;;17.00;84.80;;;;;;5027875;28;20029;-77
2022/10/11 02:37:55;;;;;;;1.80;0.93;;;17.10;84.80;;;;;;5027610;28;20400;-78
2022/10/11 02:40:26;;;;;;;1.92;0.95;;;17.00;84.80;;;;;;5009552;28;20083;-76
2022/10/11 02:43:03;;;;;;;1.48;1.00;;;17.00;84.70;;;;;;5027171;28;20025;-77
2022/10/11 02:45:42;;;;;;;2.13;1.00;;;17.00;84.60;;;;;;5028435;28;20040;-78
2022/10/11 02:48:10;;;;;;;2.08;1.10;;;17.10;84.50;;;;;;5027034;28;20017;-78
2022/10/11 02:50:38;;;;;;;1.90;1.10;;;17.00;84.40;;;;;;5027551;28;20128;-78
2022/10/11 02:53:04;;;;;;;1.70;0.98;;;17.10;84.40;;;;;;5026696;28;20495;-77
2022/10/11 02:55:30;;;;;;;2.08;1.10;;;17.10;84.40;;;;;;5009224;28;20030;-77
2022/10/11 02:57:56;;;;;;;1.20;1.00;;;17.10;84.50;;;;;;5026661;28;20492;-77
2022/10/11 03:00:21;;;;;;;1.73;1.05;;;17.10;84.50;;;;;;5026744;28;20032;-78
2022/10/11 03:02:47;;;;;;;2.08;1.08;;;17.00;84.50;;;;;;5025629;28;20117;-77
2022/10/11 03:05:13;;;;;;;2.47;1.08;;;17.00;84.50;;;;;;5026449;28;20025;-76
2022/10/11 03:07:38;;;;;;;2.17;1.13;;;17.00;84.50;;;;;;5026912;28;20234;-78
2022/10/11 03:10:05;;;;;;;2.13;0.98;;;17.00;84.60;;;;;;5009227;28;20122;-77
2022/10/11 03:12:30;;;;;;;2.78;1.27;;;17.00;84.60;;;;;;5027515;28;20029;-77
2022/10/11 03:14:56;;;;;;;2.10;1.10;;;17.00;84.60;;;;;;5027515;28;20033;-78
2022/10/11 03:17:21;;;;;;;2.03;0.98;;;17.00;84.70;;;;;;5026328;28;20083;-78
2022/10/11 03:19:47;;;;;;;2.25;1.00;;;17.00;84.70;;;;;;5027236;28;20546;-78
2022/10/11 03:22:13;;;;;;;2.22;1.25;;;17.00;84.80;;;;;;5027011;28;20140;-77
2022/10/11 03:24:39;;;;;;;1.15;0.90;;;17.00;84.80;;;;;;5026798;28;20112;-81
2022/10/11 03:27:04;;;;;;;2.28;1.13;;;17.00;84.80;;;;;;5025657;28;20057;-78
2022/10/11 03:29:30;;;;;;;2.30;1.10;;;17.00;84.80;;;;;;5027108;28;20071;-77
2022/10/11 03:31:55;;;;;;;2.45;1.08;;;16.90;84.70;;;;;;5026617;28;20025;-77
2022/10/11 03:34:21;;;;;;;2.85;1.00;;;17.00;84.80;;;;;;5008540;28;20044;-77
2022/10/11 03:36:46;;;;;;;2.08;1.00;;;16.90;84.80;;;;;;5008836;28;20021;-77
2022/10/11 03:39:12;;;;;;;1.73;1.00;;;16.90;84.80;;;;;;5008672;28;20025;-77
2022/10/11 03:41:37;;;;;;;2.05;1.00;;;17.00;84.80;;;;;;5026067;28;20068;-77
2022/10/11 03:44:03;;;;;;;1.40;0.90;;;17.00;84.80;;;;;;5026319;28;20033;-77
2022/10/11 03:46:29;;;;;;;1.85;1.08;;;17.00;85.20;;;;;;5026430;28;20075;-77
2022/10/11 03:48:54;;;;;;;2.30;0.98;;;17.00;84.60;;;;;;5026014;28;20032;-78
2022/10/11 03:51:20;;;;;;;2.03;0.90;;;17.00;84.50;;;;;;5008209;28;20021;-77
2022/10/11 03:53:45;;;;;;;1.58;1.00;;;17.00;84.50;;;;;;5026035;28;20040;-77
2022/10/11 03:56:11;;;;;;;1.75;0.90;;;17.00;84.50;;;;;;5008191;28;20071;-77
2022/10/11 03:58:36;;;;;;;2.22;1.05;;;17.00;84.50;;;;;;5007328;28;20376;-77
2022/10/11 04:01:02;;;;;;;1.63;0.90;;;17.00;84.50;;;;;;5025837;28;20033;-77
2022/10/11 04:03:28;;;;;;;2.30;1.10;;;17.00;84.50;;;;;;5026040;28;20036;-77
2022/10/11 04:05:53;;;;;;;1.65;1.00;;;17.00;84.60;;;;;;5008594;28;20053;-79
2022/10/11 04:08:19;;;;;;;2.35;1.00;;;17.00;84.60;;;;;;5026132;28;20615;-77
2022/10/11 04:10:44;;;;;;;1.88;0.90;;;16.90;84.60;;;;;;5027497;28;20020;-76
2022/10/11 04:13:10;;;;;;;1.27;1.00;;;16.90;84.60;;;;;;5029049;28;20036;-76
2022/10/11 04:15:37;;;;;;;1.65;1.10;;;16.90;84.70;;;;;;5004525;28;20275;-76
2022/10/11 04:18:05;;;;;;;1.30;0.95;;;16.90;84.70;;;;;;5006337;28;20104;-76
2022/10/11 04:20:31;;;;;;;1.75;1.10;;;16.90;84.70;;;;;;5044765;28;20449;-76
2022/10/11 04:22:56;;;;;;;1.73;1.00;;;16.90;84.70;;;;;;5025877;28;20017;-76
2022/10/11 04:25:22;;;;;;;1.75;0.90;;;16.90;84.80;;;;;;5026568;28;20028;-76
2022/10/11 04:27:47;;;;;;;1.75;0.98;;;17.00;84.90;;;;;;5020574;28;20033;-76
2022/10/11 04:30:13;;;;;;;2.22;1.05;;;16.90;84.90;;;;;;5013759;28;20029;-76
2022/10/11 04:32:39;;;;;;;2.33;1.10;;;16.90;84.90;;;;;;5032128;28;20031;-76
2022/10/11 04:35:05;;;;;;;2.92;1.20;;;16.90;84.90;;;;;;5025615;28;20037;-79
2022/10/11 04:37:30;;;;;;;2.35;1.00;;;16.90;84.90;;;;;;5006700;28;20117;-78
2022/10/11 04:39:56;;;;;;;1.98;1.10;;;16.90;84.90;;;;;;5025584;28;20442;-77
2022/10/11 04:42:21;;;;;;;2.30;0.90;;;16.90;84.90;;;;;;5007714;28;20599;-77
2022/10/11 04:44:47;;;;;;;0.95;0.80;;;16.90;84.80;;;;;;5008120;28;20479;-77
2022/10/11 04:47:12;;;;;;;1.85;1.00;;;17.00;84.80;;;;;;5025200;28;20043;-77
2022/10/11 04:49:38;;;;;;;1.95;0.85;;;16.90;84.60;;;;;;5027257;28;20076;-77
2022/10/11 04:52:03;;;;;;;1.98;1.10;;;16.90;84.60;;;;;;5025818;28;20053;-76
2022/10/11 04:54:29;;;;;;;1.60;0.90;;;17.00;84.60;;;;;;5026041;28;20061;-79
2022/10/11 04:56:55;;;;;;;1.75;1.00;;;17.00;84.50;;;;;;5026880;28;20029;-78
2022/10/11 04:59:20;;;;;;;2.30;1.08;;;17.00;84.50;;;;;;5027882;28;20033;-76
2022/10/11 05:01:46;;;;;;;2.42;0.90;;;17.00;84.60;;;;;;5015616;28;20487;-77
2022/10/11 05:04:12;;;;;;;1.40;0.85;;;16.90;84.60;;;;;;5007126;28;20108;-78
2022/10/11 05:06:38;;;;;;;2.42;1.00;;;16.90;84.70;;;;;;5013512;28;20482;-77
2022/10/11 05:09:03;;;;;;;2.05;1.05;;;16.90;84.70;;;;;;5044947;28;20021;-78
2022/10/11 05:11:29;;;;;;;2.13;1.10;;;16.90;84.70;;;;;;5046655;28;20021;-78
2022/10/11 05:13:55;;;;;;;1.80;1.00;;;16.80;84.70;;;;;;5028319;28;20500;-79
2022/10/11 05:16:21;;;;;;;2.03;0.98;;;16.90;84.80;;;;;;5027623;28;20657;-78
2022/10/11 05:18:46;;;;;;;1.35;0.90;;;16.90;84.80;;;;;;5045178;28;20063;-78
2022/10/11 05:21:18;;;;;;;1.90;0.90;;;16.90;84.80;;;;;;5044966;28;20067;-77
2022/10/11 05:23:45;;;;;;;2.30;1.10;;;16.90;84.80;;;;;;5043501;28;20112;-77
2022/10/11 05:26:11;;;;;;;1.98;0.93;;;16.90;84.70;;;;;;5044128;28;20021;-77
2022/10/11 05:28:37;;;;;;;2.42;1.00;;;16.80;84.70;;;;;;5047670;28;20024;-77
2022/10/11 05:31:03;;;;;;;2.85;1.00;;;16.90;84.70;;;;;;5029381;28;20032;-78
2022/10/11 05:33:28;;;;;;;5.07;1.40;;;16.90;84.60;;;;;;5042334;28;20041;-79
2022/10/11 05:35:54;;;;;;;4.45;1.30;;;16.90;84.60;;;;;;5006985;28;20037;-79
2022/10/11 05:38:20;;;;;;;3.13;1.17;;;16.90;84.60;;;;;;5012471;28;20040;-79
2022/10/11 05:40:46;;;;;;;2.90;1.10;;;16.90;84.60;;;;;;5020711;28;20029;-78
2022/10/11 05:43:11;;;;;;;2.78;1.20;;;16.80;84.60;;;;;;5052019;28;20678;-78
2022/10/11 05:45:38;;;;;;;1.92;0.90;;;16.80;84.50;;;;;;5051730;28;20571;-79
2022/10/11 05:48:04;;;;;;;2.33;1.13;;;16.90;84.60;;;;;;5015987;28;20555;-78
2022/10/11 05:50:30;;;;;;;3.45;1.25;;;16.90;84.60;;;;;;5031174;28;20040;-78
2022/10/11 05:52:56;;;;;;;2.17;1.05;;;16.90;84.40;;;;;;5009918;28;20033;-77
2022/10/11 05:55:21;;;;;;;3.13;1.20;;;16.90;84.40;;;;;;5031910;28;20033;-78
2022/10/11 05:57:47;;;;;;;2.80;1.20;;;16.90;84.30;;;;;;5031728;28;20033;-79
2022/10/11 06:00:13;;;;;;;1.77;1.05;;;16.80;84.10;;;;;;5030850;28;20025;-79
2022/10/11 06:02:38;;;;;;;3.10;1.63;;;16.90;84.00;;;;;;5013657;28;20372;-79
2022/10/11 06:05:04;;;;;;;3.65;1.48;;;16.90;83.90;;;;;;5011775;28;20049;-78
2022/10/11 06:07:30;;;;;;;3.05;1.38;;;16.90;83.80;;;;;;5010893;28;20025;-79
2022/10/11 06:09:56;;;;;;;2.28;1.15;;;16.90;83.70;;;;;;5028611;28;20096;-78
2022/10/11 06:12:21;;;;;;;5.40;1.35;;;16.90;83.70;;;;;;5030853;28;20098;-79
2022/10/11 06:14:47;;;;;;;2.70;1.10;;;16.90;83.70;;;;;;5012047;28;20530;-77
2022/10/11 06:17:12;;;;;;;4.45;1.40;;;16.80;83.70;;;;;;5009815;28;20028;-79
2022/10/11 06:19:38;;;;;;;2.10;1.10;;;16.90;83.70;;;;;;5028436;28;20022;-78
2022/10/11 06:22:03;;;;;;;2.30;1.00;;;17.10;83.80;;;;;;5029068;28;20834;-78
2022/10/11 06:24:29;;;;;;;3.15;1.20;;;17.00;83.70;;;;;;5030349;28;20507;-79
2022/10/11 06:26:55;;;;;;;2.53;1.13;;;17.00;83.60;;;;;;5011965;28;20036;-79
2022/10/11 06:29:21;;;;;;;3.47;1.20;;;17.00;83.50;;;;;;5029835;28;20522;-78
2022/10/11 06:31:47;;;;;;;3.83;1.27;;;17.00;83.30;;;;;;5012054;28;20025;-79
2022/10/11 06:34:13;;;;;;;3.83;1.33;;;17.00;83.30;;;;;;5030208;28;20495;-78
2022/10/11 06:36:39;;;;;;;3.03;1.25;;;17.10;83.20;;;;;;5029808;28;20029;-80
2022/10/11 06:39:04;;;;;;;2.97;1.30;;;17.10;83.20;;;;;;5014046;28;20037;-79
2022/10/11 06:41:30;;;;;;;3.10;1.10;;;17.10;82.90;;;;;;5009940;28;20088;-79
2022/10/11 06:43:56;;;;;;;3.15;1.30;;;17.10;82.80;;;;;;5014240;28;20056;-79
2022/10/11 06:46:24;;;;;;;2.70;1.10;;;17.10;82.80;;;;;;5014130;28;20053;-80
2022/10/11 06:48:50;;;;;;;3.65;1.20;;;17.20;82.70;;;;;;5030942;28;20026;-78
2022/10/11 06:51:18;;;;;;;2.63;1.10;;;17.20;82.50;;;;;;5027701;28;20028;-78
2022/10/11 06:53:54;;;;;;;3.00;1.38;;;17.30;82.90;;;;;;5028204;28;20025;-78
2022/10/11 06:56:19;;;;;;;2.38;1.00;;;17.30;82.20;;;;;;5011561;28;20029;-79
2022/10/11 06:58:45;;;;;;;2.85;1.23;;;17.40;82.00;;;;;;5012792;28;20055;-79
2022/10/11 07:01:15;;;;;;;2.72;1.10;;;17.80;82.10;;;;;;5013036;28;20033;-80
2022/10/11 07:03:40;;;;;;;3.60;1.40;;;17.50;82.00;;;;;;5030705;28;20025;-79
2022/10/11 07:06:09;;;;;;;2.58;1.20;;;17.40;81.60;;;;;;5030114;28;20108;-78
2022/10/11 07:08:35;;;;;;;2.42;1.20;;;17.40;81.50;;;;;;5012017;28;20026;-79
2022/10/11 07:11:06;;;;;;;3.00;1.30;;;17.50;81.50;;;;;;5012012;28;20026;-78
2022/10/11 07:13:32;;;;;;;3.00;1.40;;;17.50;81.50;;;;;;5012087;28;20029;-79
2022/10/11 07:16:00;;;;;;;3.35;1.30;;;17.50;81.50;;;;;;5012065;28;20068;-79
2022/10/11 07:18:26;;;;;;;2.13;1.10;;;17.50;81.40;;;;;;5027590;28;20889;-78
2022/10/11 07:20:51;;;;;;;3.42;1.45;;;17.50;81.50;;;;;;5028256;28;20116;-78
2022/10/11 07:23:17;;;;;;;1.75;1.13;;;17.50;81.50;;;;;;5011273;28;20088;-78
2022/10/11 07:25:44;;;;;;;2.83;1.13;;;17.50;81.40;;;;;;5029093;28;20108;-79
2022/10/11 07:28:09;;;;;;;3.05;1.20;;;17.50;81.70;;;;;;5028652;28;20491;-79
2022/10/11 07:30:38;;;;;;;2.00;1.08;;;17.50;81.30;;;;;;5010519;28;20029;-79
2022/10/11 07:33:03;;;;;;;2.03;1.10;;;17.60;81.10;;;;;;5010687;28;20554;-79
2022/10/11 07:35:29;;;;;;;3.15;1.35;;;17.60;80.80;;;;;;5028528;28;20051;-79
2022/10/11 07:37:55;;;;;;;2.70;1.20;;;17.60;80.70;;;;;;5010248;28;20036;-79
2022/10/11 07:40:20;;;;;;;2.40;1.20;;;17.70;80.70;;;;;;5010400;28;20025;-79
2022/10/11 07:42:46;;;;;;;2.22;1.10;;;17.60;80.40;;;;;;5028434;28;20064;-79
2022/10/11 07:45:11;;;;;;;2.40;1.30;;;17.70;80.60;;;;;;5009512;28;20025;-78
2022/10/11 07:47:37;;;;;;;2.75;1.20;;;17.70;80.50;;;;;;5026460;28;20044;-78
2022/10/11 07:50:03;;;;;;;3.10;1.35;;;17.80;80.40;;;;;;5025651;28;20032;-78
2022/10/11 07:52:28;;;;;;;2.95;1.30;;;17.80;80.30;;;;;;5027645;28;20486;-78
2022/10/11 07:54:54;;;;;;;2.83;1.20;;;17.80;80.10;;;;;;5027567;28;20073;-79
2022/10/11 07:57:19;;;;;;;2.35;1.10;;;17.80;79.90;;;;;;5027149;28;20149;-78
2022/10/11 07:59:45;;;;;;;2.70;1.15;;;17.90;79.80;;;;;;5028007;28;20057;-78
2022/10/11 08:02:11;;;;;;;2.78;1.20;;;18.00;80.20;;;;;;5009132;28;20030;-78
2022/10/11 08:04:37;;;;;;;2.17;1.17;;;18.10;79.50;;;;;;5026290;28;20493;-79
2022/10/11 08:07:03;;;;;;;2.42;1.17;;;18.00;79.50;;;;;;5009658;28;20053;-77
2022/10/11 08:09:29;;;;;;;2.45;1.20;;;18.10;79.50;;;;;;5027756;28;20032;-78
2022/10/11 08:11:54;;;;;;;2.63;1.05;;;18.10;79.60;;;;;;5027427;28;20029;-77
2022/10/11 08:14:20;;;;;;;2.40;1.20;;;17.90;79.40;;;;;;5027911;28;20021;-79
2022/10/11 08:16:46;;;;;;;2.63;1.10;;;18.10;79.50;;;;;;5026855;28;20028;-78
2022/10/11 08:19:12;;;;;;;2.83;1.20;;;18.10;79.40;;;;;;5009348;28;20421;-78
2022/10/11 08:21:38;;;;;;;1.75;1.08;;;18.10;79.30;;;;;;5026573;28;20025;-79
2022/10/11 08:24:04;;;;;;;2.20;1.10;;;18.20;79.30;;;;;;5025872;28;20048;-79
2022/10/11 08:26:31;;;;;;;1.65;1.02;;;18.20;79.20;;;;;;5025847;28;20059;-77
2022/10/11 08:28:57;;;;;;;2.47;1.10;;;18.20;79.10;;;;;;5008428;28;20036;-79
2022/10/11 08:31:23;;;;;;;2.08;1.15;;;18.20;79.00;;;;;;5008919;28;20509;-78
2022/10/11 08:33:49;;;;;;;2.20;1.15;;;18.30;78.90;;;;;;5009542;28;20112;-78
2022/10/11 08:36:14;;;;;;;2.15;1.17;;;18.30;78.80;;;;;;5027086;28;20257;-78
2022/10/11 08:38:40;;;;;;;2.63;1.27;;;18.30;78.70;;;;;;5026457;28;20108;-79
2022/10/11 08:41:24;;;;;;;2.00;1.20;;;18.40;78.70;;;;;;5027243;28;20086;-78
2022/10/11 08:44:07;;;;;;;1.27;1.00;;;18.40;78.60;;;;;;5026325;28;20044;-78
2022/10/11 08:46:37;;;;;;;1.70;0.95;;;18.40;78.50;;;;;;5007822;28;20032;-78
2022/10/11 08:49:06;;;;;;;2.47;1.20;;;18.40;78.40;;;;;;5008216;28;20021;-79
2022/10/11 08:51:38;;;;;;;2.30;1.20;;;18.40;78.20;;;;;;5025966;28;20025;-78
2022/10/11 08:54:41;;;;;;;1.90;1.05;;;18.50;78.10;;;;;;5008576;28;20029;-78
2022/10/11 08:57:13;;;;;;;2.25;1.23;;;18.50;78.10;;;;;;5005188;28;20042;-79
2022/10/11 08:59:41;;;;;;;;;;;18.60;78.00;;;;;;5026137;28;20075;-78
2022/10/11 09:02:16;;;;;;;2.03;1.23;;;18.60;77.90;;;;;;5027334;28;19930;-79
2022/10/11 09:04:50;;;;;;;2.58;1.25;;;18.60;77.90;;;;;;5029434;28;20032;-78
2022/10/11 09:07:44;;;;;;;2.08;1.10;;;18.60;77.90;;;;;;5030193;28;20117;-79
2022/10/11 09:10:32;;;;;;;2.83;1.10;;;18.60;77.90;;;;;;5012289;28;20049;-79
2022/10/11 09:13:10;;;;;;;2.15;1.08;;;18.60;78.00;;;;;;4994372;28;20040;-79
2022/10/11 09:15:45;;;;;;;2.78;1.20;;;18.60;78.10;;;;;;5016141;28;20409;-80
2022/10/11 09:18:52;;;;;;;2.47;1.30;;;18.60;78.20;;;;;;5015637;28;20033;-79
2022/10/11 09:21:27;;;;;;;2.17;1.20;;;18.50;78.30;;;;;;5033223;28;20031;-80
2022/10/11 09:24:05;;;;;;;2.80;1.20;;;18.50;78.30;;;;;;5032603;28;20025;-79
2022/10/11 09:26:52;;;;;;;2.05;1.00;;;18.50;78.40;;;;;;5014507;28;20407;-80
2022/10/11 09:29:56;;;;;;;1.92;1.17;;;18.50;78.50;;;;;;5032886;28;20018;-79
2022/10/11 09:32:27;;;;;;;2.33;1.20;;;18.40;78.60;;;;;;4985733;28;20049;-78
2022/10/11 09:35:07;;;;;;;3.00;1.20;;;18.40;78.70;;;;;;5029291;28;20028;-79
2022/10/11 09:37:56;;;;;;;;;;;18.40;78.70;;;;;;5014385;28;20053;-79
2022/10/11 09:40:44;;;;;;;2.22;1.20;;;18.40;78.80;;;;;;5023564;28;20039;-79
2022/10/11 09:43:10;;;;;;;2.60;1.20;;;18.40;78.80;;;;;;5032211;28;20069;-79
2022/10/11 09:45:35;;;;;;;3.03;1.48;;;18.40;78.90;;;;;;5031818;28;20026;-79
2022/10/11 09:48:05;;;;;;;2.30;1.20;;;18.40;78.90;;;;;;5030781;28;20025;-79
2022/10/11 09:50:32;;;;;;;2.97;1.40;;;18.40;78.90;;;;;;5031500;28;20128;-80
2022/10/11 09:53:02;;;;;;;1.98;1.30;;;18.40;78.90;;;;;;5031351;28;20079;-79
2022/10/11 09:55:59;;;;;;;2.30;1.20;;;18.40;78.80;;;;;;5030683;28;20041;-78
2022/10/11 09:58:26;;;;;;;2.55;1.17;;;18.40;78.80;;;;;;5008528;28;20120;-79
2022/10/11 10:01:07;;;;;;;2.78;1.27;;;18.40;78.80;;;;;;5030803;28;20369;-79
2022/10/11 10:03:35;;;;;;;1.88;1.30;;;18.50;78.90;;;;;;5030899;28;20029;-79
2022/10/11 10:06:24;;;;;;;2.58;1.10;;;18.40;78.80;;;;;;5012651;28;20036;-80
2022/10/11 10:08:50;;;;;;;2.58;1.08;;;18.40;78.80;;;;;;5027677;28;20099;-79
2022/10/11 10:11:17;;;;;;;3.13;1.38;;;18.40;78.90;;;;;;5012235;28;20026;-78
2022/10/11 10:14:00;;;;;;;2.10;1.10;;;18.50;79.00;;;;;;5031588;28;20040;-78
2022/10/11 10:16:33;;;;;;;2.38;1.25;;;18.30;79.00;;;;;;5033075;28;20029;-80
2022/10/11 10:19:15;;;;;;;1.80;1.15;;;18.40;79.10;;;;;;5032209;28;20029;-80
2022/10/11 10:21:49;;;;;;;3.47;1.20;;;18.30;79.10;;;;;;5032583;28;20029;-79
2022/10/11 10:24:34;;;;;;;3.38;1.58;;;18.30;79.20;;;;;;5013958;28;20499;-80
2022/10/11 10:27:09;;;;;;;3.90;1.58;;;18.30;79.40;;;;;;5012353;28;20789;-79
2022/10/11 10:29:35;;;;;;;2.83;1.08;;;18.30;79.40;;;;;;5031863;28;20382;-77
2022/10/11 10:32:13;;;;;;;1.95;1.20;;;18.30;79.30;;;;;;5031705;28;20490;-79
2022/10/11 10:35:13;;;;;;;1.70;1.00;;;18.30;79.30;;;;;;5031328;28;20517;-79
2022/10/11 10:37:51;;;;;;;3.20;1.30;;;18.30;79.30;;;;;;5012921;28;20045;-79
2022/10/11 10:40:26;;;;;;;1.85;1.10;;;18.20;79.40;;;;;;5013220;28;20771;-80
2022/10/11 10:42:52;;;;;;;2.83;1.30;;;18.30;79.50;;;;;;5012653;28;20414;-79
2022/10/11 10:45:19;;;;;;;2.40;1.23;;;18.30;79.70;;;;;;5030553;28;20021;-79
2022/10/11 10:48:00;;;;;;;1.77;1.10;;;18.20;79.70;;;;;;5030272;28;20029;-79
2022/10/11 10:50:57;;;;;;;3.08;1.20;;;18.30;79.60;;;;;;5012467;28;20224;-82
2022/10/11 10:53:31;;;;;;;2.42;1.27;;;18.30;79.60;;;;;;5003423;28;20041;-81
2022/10/11 10:56:09;;;;;;;1.50;1.10;;;18.30;79.50;;;;;;5021695;28;20813;-77
2022/10/11 10:58:35;;;;;;;2.30;1.33;;;18.30;79.50;;;;;;5009853;28;20112;-78
2022/10/11 11:01:13;;;;;;;2.97;1.20;;;18.30;79.30;;;;;;5011474;28;20811;-78
2022/10/11 11:04:06;;;;;;;3.03;1.30;;;18.30;79.20;;;;;;5048535;28;20865;-78
2022/10/11 11:06:48;;;;;;;2.47;1.08;;;18.40;79.20;;;;;;5029858;28;20029;-78
2022/10/11 11:09:41;;;;;;;2.10;1.20;;;18.30;79.20;;;;;;5013103;28;20511;-83
2022/10/11 11:12:35;;;;;;;2.28;1.30;;;18.30;79.30;;;;;;5029601;28;20256;-78
2022/10/11 11:15:17;;;;;;;3.05;1.20;;;18.30;79.40;;;;;;5022436;28;20053;-79
2022/10/11 11:18:30;;;;;;;3.30;1.30;;;18.20;79.50;;;;;;4998101;28;20029;-80
2022/10/11 11:21:14;;;;;;;3.40;1.33;;;18.30;79.60;;;;;;5015294;28;20037;-77
2022/10/11 11:24:20;;;;;;;2.55;1.17;;;18.20;79.70;;;;;;5006319;28;20029;-79
2022/10/11 11:27:03;;;;;;;2.10;1.23;;;18.20;79.70;;;;;;5043063;28;20541;-79
2022/10/11 11:29:49;;;;;;;2.97;1.40;;;18.20;79.70;;;;;;5029427;28;20040;-78
2022/10/11 11:32:19;;;;;;;2.67;1.17;;;18.20;79.70;;;;;;5048070;28;20075;-79
2022/10/11 11:35:00;;;;;;;2.25;1.20;;;18.20;79.80;;;;;;5030011;28;20123;-79
2022/10/11 11:37:36;;;;;;;2.05;1.20;;;18.20;79.80;;;;;;5047915;28;20449;-79
2022/10/11 11:40:19;;;;;;;3.80;1.42;;;18.20;79.80;;;;;;5047622;28;20045;-79
2022/10/11 11:42:47;;;;;;;2.92;1.35;;;18.20;79.70;;;;;;5048266;28;20021;-79
2022/10/11 11:45:30;;;;;;;3.28;1.60;;;18.20;79.70;;;;;;5046513;28;20107;-78
2022/10/11 11:48:06;;;;;;;3.10;1.25;;;18.20;79.60;;;;;;5048649;28;20036;-79
2022/10/11 11:50:44;;;;;;;1.92;1.15;;;18.20;79.70;;;;;;5047540;28;20071;-78
2022/10/11 11:53:16;;;;;;;2.92;1.20;;;18.20;79.40;;;;;;5029053;28;20033;-79
2022/10/11 11:55:48;;;;;;;2.85;1.10;;;18.20;79.30;;;;;;5047969;28;20025;-79
2022/10/11 11:58:16;;;;;;;;;;;18.40;79.20;;;;;;5030402;28;20052;-78
2022/10/11 12:01:06;;;;;;;1.60;1.10;;;18.40;79.10;;;;;;5048352;28;19908;-78
2022/10/11 12:03:43;;;;;;;2.63;1.30;;;18.40;79.00;;;;;;5048037;28;20064;-79
2022/10/11 12:06:16;;;;;;;3.08;1.38;;;18.40;78.90;;;;;;5011407;28;20136;-79
2022/10/11 12:08:53;;;;;;;2.15;1.10;;;18.40;78.90;;;;;;5013214;28;20436;-80
2022/10/11 12:11:24;;;;;;;2.88;1.10;;;18.40;79.00;;;;;;5009346;28;20112;-79
2022/10/11 12:13:53;;;;;;;2.10;1.10;;;18.30;79.10;;;;;;5009840;28;20041;-79
2022/10/11 12:16:20;;;;;;;2.80;1.52;;;18.40;79.10;;;;;;5027729;28;20034;-79
2022/10/11 12:18:55;;;;;;;2.60;1.13;;;18.30;79.30;;;;;;5009624;28;20048;-78
2022/10/11 12:21:37;;;;;;;1.95;1.10;;;18.40;79.30;;;;;;5027705;28;20025;-79
2022/10/11 12:24:22;;;;;;;1.95;1.10;;;18.30;79.30;;;;;;5010026;28;20022;-79
2022/10/11 12:26:56;;;;;;;3.13;1.15;;;18.30;79.40;;;;;;5027370;28;20021;-79
2022/10/11 12:29:24;;;;;;;2.67;1.00;;;18.30;79.50;;;;;;5009423;28;20029;-79
2022/10/11 12:32:02;;;;;;;3.00;1.20;;;18.30;79.50;;;;;;5008101;28;20030;-78
2022/10/11 12:34:38;;;;;;;1.92;1.08;;;18.20;79.50;;;;;;5026862;28;20096;-79
2022/10/11 12:37:30;;;;;;;2.50;1.20;;;18.30;79.60;;;;;;5013729;28;20036;-79
2022/10/11 12:39:59;;;;;;;2.85;1.10;;;18.20;79.60;;;;;;4995287;28;20538;-78
2022/10/11 12:42:31;;;;;;;2.65;1.30;;;18.20;79.70;;;;;;5031630;28;20044;-79
2022/10/11 12:45:12;;;;;;;;;;;18.20;79.70;;;;;;5013098;28;20125;-79
2022/10/11 12:48:01;;;;;;;2.42;1.20;;;18.20;79.70;;;;;;5018201;28;19909;-79
2022/10/11 12:50:43;;;;;;;3.20;1.27;;;18.20;79.60;;;;;;5018433;28;20113;-80
2022/10/11 12:53:33;;;;;;;3.15;1.38;;;18.20;79.60;;;;;;5018322;28;20038;-79
2022/10/11 12:56:34;;;;;;;1.73;1.10;;;18.30;79.60;;;;;;5033895;28;20037;-79
2022/10/11 12:59:03;;;;;;;3.40;1.30;;;18.20;79.50;;;;;;5032348;28;20036;-79
2022/10/11 13:01:35;;;;;;;2.92;1.23;;;18.20;79.50;;;;;;5016779;28;20052;-79
2022/10/11 13:04:08;;;;;;;2.50;1.17;;;18.30;79.60;;;;;;5034291;28;20060;-79
2022/10/11 13:06:44;;;;;;;2.03;1.00;;;18.20;79.60;;;;;;5033928;28;20029;-78
2022/10/11 13:09:10;;;;;;;3.15;1.20;;;18.20;79.60;;;;;;5015945;28;20129;-79
2022/10/11 13:12:03;;;;;;;1.90;1.00;;;18.20;79.80;;;;;;5015841;28;20440;-79